sensor_id;sensor_type;location;lat;lon;timestamp;temperature;humidity
45229;DHT22;30967;51.728;8.682;2022-07-29T00:00:43;22.50;69.30
45229;DHT22;30967;51.728;8.682;2022-07-29T00:03:12;22.50;68.80
45229;DHT22;30967;51.728;8.682;2022-07-29T00:05:41;22.50;68.80
45229;DHT22;30967;51.728;8.682;2022-07-29T00:08:08;22.50;68.80
45229;DHT22;30967;51.728;8.682;2022-07-29T00:10:33;22.50;68.60
45229;DHT22;30967;51.728;8.682;2022-07-29T00:12:59;22.40;68.70
45229;DHT22;30967;51.728;8.682;2022-07-29T00:15:25;22.40;68.90
45229;DHT22;30967;51.728;8.682;2022-07-29T00:17:50;22.40;69.00
45229;DHT22;30967;51.728;8.682;2022-07-29T00:20:16;22.40;68.90
45229;DHT22;30967;51.728;8.682;2022-07-29T00:22:42;22.40;68.70
45229;DHT22;30967;51.728;8.682;2022-07-29T00:25:08;22.40;69.30
45229;DHT22;30967;51.728;8.682;2022-07-29T00:27:37;22.40;69.20
45229;DHT22;30967;51.728;8.682;2022-07-29T00:30:03;22.40;69.30
45229;DHT22;30967;51.728;8.682;2022-07-29T00:32:29;22.40;69.20
45229;DHT22;30967;51.728;8.682;2022-07-29T00:34:55;22.40;69.10
45229;DHT22;30967;51.728;8.682;2022-07-29T00:37:39;22.40;69.10
45229;DHT22;30967;51.728;8.682;2022-07-29T00:40:05;22.40;69.10
45229;DHT22;30967;51.728;8.682;2022-07-29T00:42:31;22.40;69.10
45229;DHT22;30967;51.728;8.682;2022-07-29T00:45:06;22.40;69.00
45229;DHT22;30967;51.728;8.682;2022-07-29T00:47:31;22.30;68.70
45229;DHT22;30967;51.728;8.682;2022-07-29T00:49:57;22.30;68.70
45229;DHT22;30967;51.728;8.682;2022-07-29T00:52:23;22.30;69.00
45229;DHT22;30967;51.728;8.682;2022-07-29T00:54:48;22.30;68.70
45229;DHT22;30967;51.728;8.682;2022-07-29T00:57:14;22.30;68.70
45229;DHT22;30967;51.728;8.682;2022-07-29T00:59:40;22.30;68.80
45229;DHT22;30967;51.728;8.682;2022-07-29T01:02:05;22.30;68.80
45229;DHT22;30967;51.728;8.682;2022-07-29T01:04:31;22.30;68.60
45229;DHT22;30967;51.728;8.682;2022-07-29T01:06:57;22.30;68.70
45229;DHT22;30967;51.728;8.682;2022-07-29T01:09:23;22.30;68.30
45229;DHT22;30967;51.728;8.682;2022-07-29T01:11:50;22.30;68.20
45229;DHT22;30967;51.728;8.682;2022-07-29T01:14:16;22.30;67.90
45229;DHT22;30967;51.728;8.682;2022-07-29T01:16:56;22.30;68.10
45229;DHT22;30967;51.728;8.682;2022-07-29T01:30:49;22.30;67.70
45229;DHT22;30967;51.728;8.682;2022-07-29T01:33:17;22.20;68.00
45229;DHT22;30967;51.728;8.682;2022-07-29T01:36:06;22.30;67.90
45229;DHT22;30967;51.728;8.682;2022-07-29T01:38:34;22.20;68.10
45229;DHT22;30967;51.728;8.682;2022-07-29T01:41:10;22.20;68.10
45229;DHT22;30967;51.728;8.682;2022-07-29T01:44:01;22.20;68.10
45229;DHT22;30967;51.728;8.682;2022-07-29T01:46:34;22.20;68.10
45229;DHT22;30967;51.728;8.682;2022-07-29T01:49:26;22.20;67.80
45229;DHT22;30967;51.728;8.682;2022-07-29T01:51:57;22.20;68.00
45229;DHT22;30967;51.728;8.682;2022-07-29T01:54:45;22.20;68.00
45229;DHT22;30967;51.728;8.682;2022-07-29T01:57:14;22.20;68.20
45229;DHT22;30967;51.728;8.682;2022-07-29T01:59:41;22.20;68.30
45229;DHT22;30967;51.728;8.682;2022-07-29T02:02:10;22.20;68.10
45229;DHT22;30967;51.728;8.682;2022-07-29T02:04:37;22.20;68.30
45229;DHT22;30967;51.728;8.682;2022-07-29T02:07:06;22.20;68.20
45229;DHT22;30967;51.728;8.682;2022-07-29T02:09:35;22.10;68.30
45229;DHT22;30967;51.728;8.682;2022-07-29T02:12:03;22.20;68.50
45229;DHT22;30967;51.728;8.682;2022-07-29T02:14:33;22.20;68.10
45229;DHT22;30967;51.728;8.682;2022-07-29T02:17:00;22.10;68.10
45229;DHT22;30967;51.728;8.682;2022-07-29T02:19:27;22.20;68.20
45229;DHT22;30967;51.728;8.682;2022-07-29T02:21:56;22.20;68.30
45229;DHT22;30967;51.728;8.682;2022-07-29T02:24:23;22.10;68.30
45229;DHT22;30967;51.728;8.682;2022-07-29T02:26:53;22.10;69.00
45229;DHT22;30967;51.728;8.682;2022-07-29T02:29:22;22.10;68.40
45229;DHT22;30967;51.728;8.682;2022-07-29T02:31:49;22.10;68.30
45229;DHT22;30967;51.728;8.682;2022-07-29T02:34:17;22.10;68.20
45229;DHT22;30967;51.728;8.682;2022-07-29T02:36:44;22.10;68.50
45229;DHT22;30967;51.728;8.682;2022-07-29T02:39:12;22.10;68.60
45229;DHT22;30967;51.728;8.682;2022-07-29T02:41:48;22.10;68.70
45229;DHT22;30967;51.728;8.682;2022-07-29T02:44:17;22.10;68.70
45229;DHT22;30967;51.728;8.682;2022-07-29T02:46:49;22.00;68.70
45229;DHT22;30967;51.728;8.682;2022-07-29T02:52:34;22.00;69.70
45229;DHT22;30967;51.728;8.682;2022-07-29T02:55:19;22.00;69.00
45229;DHT22;30967;51.728;8.682;2022-07-29T02:57:54;22.00;69.10
45229;DHT22;30967;51.728;8.682;2022-07-29T03:00:27;22.00;69.40
45229;DHT22;30967;51.728;8.682;2022-07-29T03:02:56;22.00;69.40
45229;DHT22;30967;51.728;8.682;2022-07-29T03:05:24;22.00;69.70
45229;DHT22;30967;51.728;8.682;2022-07-29T03:08:03;22.00;69.80
45229;DHT22;30967;51.728;8.682;2022-07-29T03:10:30;22.00;69.80
45229;DHT22;30967;51.728;8.682;2022-07-29T03:12:56;22.00;70.00
45229;DHT22;30967;51.728;8.682;2022-07-29T03:15:23;22.00;70.00
45229;DHT22;30967;51.728;8.682;2022-07-29T03:17:49;22.00;70.20
45229;DHT22;30967;51.728;8.682;2022-07-29T03:20:16;22.00;70.20
45229;DHT22;30967;51.728;8.682;2022-07-29T03:22:43;21.90;70.40
45229;DHT22;30967;51.728;8.682;2022-07-29T03:25:13;21.90;70.40
45229;DHT22;30967;51.728;8.682;2022-07-29T03:27:40;21.90;70.20
45229;DHT22;30967;51.728;8.682;2022-07-29T03:30:07;21.90;70.10
45229;DHT22;30967;51.728;8.682;2022-07-29T03:32:33;21.90;69.80
45229;DHT22;30967;51.728;8.682;2022-07-29T03:34:59;21.90;69.60
45229;DHT22;30967;51.728;8.682;2022-07-29T03:37:24;21.80;69.80
45229;DHT22;30967;51.728;8.682;2022-07-29T03:39:51;21.90;69.80
45229;DHT22;30967;51.728;8.682;2022-07-29T03:42:19;21.80;69.70
45229;DHT22;30967;51.728;8.682;2022-07-29T03:44:48;21.90;69.80
45229;DHT22;30967;51.728;8.682;2022-07-29T03:47:14;21.80;69.70
45229;DHT22;30967;51.728;8.682;2022-07-29T03:49:42;21.80;69.80
45229;DHT22;30967;51.728;8.682;2022-07-29T03:52:09;21.90;69.70
45229;DHT22;30967;51.728;8.682;2022-07-29T03:54:35;21.90;70.00
45229;DHT22;30967;51.728;8.682;2022-07-29T03:57:02;21.80;70.00
45229;DHT22;30967;51.728;8.682;2022-07-29T03:59:30;21.80;70.00
45229;DHT22;30967;51.728;8.682;2022-07-29T04:01:58;21.80;70.00
45229;DHT22;30967;51.728;8.682;2022-07-29T04:04:25;21.80;70.10
45229;DHT22;30967;51.728;8.682;2022-07-29T04:06:51;21.80;70.20
45229;DHT22;30967;51.728;8.682;2022-07-29T04:09:16;21.80;70.60
45229;DHT22;30967;51.728;8.682;2022-07-29T04:11:42;21.80;70.80
45229;DHT22;30967;51.728;8.682;2022-07-29T04:14:08;21.80;70.90
45229;DHT22;30967;51.728;8.682;2022-07-29T04:16:33;21.80;70.80
45229;DHT22;30967;51.728;8.682;2022-07-29T04:18:59;21.80;70.70
45229;DHT22;30967;51.728;8.682;2022-07-29T04:21:25;21.80;70.80
45229;DHT22;30967;51.728;8.682;2022-07-29T04:23:50;21.80;70.80
45229;DHT22;30967;51.728;8.682;2022-07-29T04:26:17;21.80;70.80
45229;DHT22;30967;51.728;8.682;2022-07-29T04:28:44;21.80;70.80
45229;DHT22;30967;51.728;8.682;2022-07-29T04:31:11;21.70;70.80
45229;DHT22;30967;51.728;8.682;2022-07-29T04:33:36;21.70;70.90
45229;DHT22;30967;51.728;8.682;2022-07-29T04:36:02;21.70;71.20
45229;DHT22;30967;51.728;8.682;2022-07-29T04:38:28;21.70;71.40
45229;DHT22;30967;51.728;8.682;2022-07-29T04:40:53;21.70;70.90
45229;DHT22;30967;51.728;8.682;2022-07-29T04:43:19;21.70;70.60
45229;DHT22;30967;51.728;8.682;2022-07-29T04:45:45;21.70;70.50
45229;DHT22;30967;51.728;8.682;2022-07-29T04:48:10;21.70;70.50
45229;DHT22;30967;51.728;8.682;2022-07-29T04:50:39;21.70;70.60
45229;DHT22;30967;51.728;8.682;2022-07-29T04:53:05;21.70;70.70
45229;DHT22;30967;51.728;8.682;2022-07-29T04:55:31;21.70;70.50
45229;DHT22;30967;51.728;8.682;2022-07-29T04:57:57;21.70;70.40
45229;DHT22;30967;51.728;8.682;2022-07-29T05:00:22;21.70;70.30
45229;DHT22;30967;51.728;8.682;2022-07-29T05:02:49;21.70;70.30
45229;DHT22;30967;51.728;8.682;2022-07-29T05:05:14;21.70;70.10
45229;DHT22;30967;51.728;8.682;2022-07-29T05:07:40;21.70;70.10
45229;DHT22;30967;51.728;8.682;2022-07-29T05:10:06;21.70;70.30
45229;DHT22;30967;51.728;8.682;2022-07-29T05:12:32;21.70;70.50
45229;DHT22;30967;51.728;8.682;2022-07-29T05:14:57;21.70;70.50
45229;DHT22;30967;51.728;8.682;2022-07-29T05:17:23;21.70;70.60
45229;DHT22;30967;51.728;8.682;2022-07-29T05:19:49;21.70;70.50
45229;DHT22;30967;51.728;8.682;2022-07-29T05:22:19;21.70;70.40
45229;DHT22;30967;51.728;8.682;2022-07-29T05:24:45;21.70;70.50
45229;DHT22;30967;51.728;8.682;2022-07-29T05:27:11;21.70;70.90
45229;DHT22;30967;51.728;8.682;2022-07-29T05:29:36;21.70;71.10
45229;DHT22;30967;51.728;8.682;2022-07-29T05:32:03;21.70;71.30
45229;DHT22;30967;51.728;8.682;2022-07-29T05:34:30;21.70;71.40
45229;DHT22;30967;51.728;8.682;2022-07-29T05:36:56;21.70;71.50
45229;DHT22;30967;51.728;8.682;2022-07-29T05:39:22;21.70;71.60
45229;DHT22;30967;51.728;8.682;2022-07-29T05:41:48;21.70;71.80
45229;DHT22;30967;51.728;8.682;2022-07-29T05:44:14;21.70;72.20
45229;DHT22;30967;51.728;8.682;2022-07-29T05:46:40;21.70;72.50
45229;DHT22;30967;51.728;8.682;2022-07-29T05:49:06;21.70;73.40
45229;DHT22;30967;51.728;8.682;2022-07-29T05:51:34;21.70;72.80
45229;DHT22;30967;51.728;8.682;2022-07-29T05:54:00;21.70;72.70
45229;DHT22;30967;51.728;8.682;2022-07-29T05:56:26;21.60;72.80
45229;DHT22;30967;51.728;8.682;2022-07-29T05:58:52;21.60;72.90
45229;DHT22;30967;51.728;8.682;2022-07-29T06:01:18;21.60;73.00
45229;DHT22;30967;51.728;8.682;2022-07-29T06:03:44;21.70;73.00
45229;DHT22;30967;51.728;8.682;2022-07-29T06:06:10;21.70;72.70
45229;DHT22;30967;51.728;8.682;2022-07-29T06:08:36;21.70;72.80
45229;DHT22;30967;51.728;8.682;2022-07-29T06:11:03;21.70;72.60
45229;DHT22;30967;51.728;8.682;2022-07-29T06:13:29;21.80;72.60
45229;DHT22;30967;51.728;8.682;2022-07-29T06:15:55;21.80;72.50
45229;DHT22;30967;51.728;8.682;2022-07-29T06:18:21;21.70;72.60
45229;DHT22;30967;51.728;8.682;2022-07-29T06:20:50;21.70;72.70
45229;DHT22;30967;51.728;8.682;2022-07-29T06:23:16;21.70;72.70
45229;DHT22;30967;51.728;8.682;2022-07-29T06:25:42;21.70;72.80
45229;DHT22;30967;51.728;8.682;2022-07-29T06:28:08;21.80;72.90
45229;DHT22;30967;51.728;8.682;2022-07-29T06:30:33;21.80;73.00
45229;DHT22;30967;51.728;8.682;2022-07-29T06:32:59;21.70;73.40
45229;DHT22;30967;51.728;8.682;2022-07-29T06:35:26;21.80;73.50
45229;DHT22;30967;51.728;8.682;2022-07-29T06:37:52;21.80;73.40
45229;DHT22;30967;51.728;8.682;2022-07-29T06:40:17;21.80;73.40
45229;DHT22;30967;51.728;8.682;2022-07-29T06:43:01;21.80;73.40
45229;DHT22;30967;51.728;8.682;2022-07-29T06:45:27;21.80;73.60
45229;DHT22;30967;51.728;8.682;2022-07-29T06:47:52;21.80;73.70
45229;DHT22;30967;51.728;8.682;2022-07-29T06:50:18;21.80;73.90
45229;DHT22;30967;51.728;8.682;2022-07-29T06:52:44;21.80;74.00
45229;DHT22;30967;51.728;8.682;2022-07-29T06:55:09;21.80;74.10
45229;DHT22;30967;51.728;8.682;2022-07-29T06:57:35;21.80;74.20
45229;DHT22;30967;51.728;8.682;2022-07-29T07:00:01;21.80;74.20
45229;DHT22;30967;51.728;8.682;2022-07-29T07:02:26;21.90;74.40
45229;DHT22;30967;51.728;8.682;2022-07-29T07:04:52;21.90;74.40
45229;DHT22;30967;51.728;8.682;2022-07-29T07:07:17;21.90;74.40
45229;DHT22;30967;51.728;8.682;2022-07-29T07:09:43;21.90;74.50
45229;DHT22;30967;51.728;8.682;2022-07-29T07:12:09;21.90;74.60
45229;DHT22;30967;51.728;8.682;2022-07-29T07:14:34;21.90;74.90
45229;DHT22;30967;51.728;8.682;2022-07-29T07:17:00;21.90;75.50
45229;DHT22;30967;51.728;8.682;2022-07-29T07:19:26;21.90;76.10
45229;DHT22;30967;51.728;8.682;2022-07-29T07:21:55;21.90;76.50
45229;DHT22;30967;51.728;8.682;2022-07-29T07:24:20;21.90;76.80
45229;DHT22;30967;51.728;8.682;2022-07-29T07:26:46;21.90;76.60
45229;DHT22;30967;51.728;8.682;2022-07-29T07:29:12;21.90;76.80
45229;DHT22;30967;51.728;8.682;2022-07-29T07:31:38;21.80;76.90
45229;DHT22;30967;51.728;8.682;2022-07-29T07:34:04;21.90;77.80
45229;DHT22;30967;51.728;8.682;2022-07-29T07:36:29;21.90;78.00
45229;DHT22;30967;51.728;8.682;2022-07-29T07:38:55;21.90;78.00
45229;DHT22;30967;51.728;8.682;2022-07-29T07:41:21;21.90;78.30
45229;DHT22;30967;51.728;8.682;2022-07-29T07:43:46;21.90;78.50
45229;DHT22;30967;51.728;8.682;2022-07-29T07:46:12;21.90;78.80
45229;DHT22;30967;51.728;8.682;2022-07-29T07:48:38;21.90;78.30
45229;DHT22;30967;51.728;8.682;2022-07-29T07:51:03;21.90;78.10
45229;DHT22;30967;51.728;8.682;2022-07-29T07:53:29;22.00;77.30
45229;DHT22;30967;51.728;8.682;2022-07-29T07:55:55;22.00;77.10
45229;DHT22;30967;51.728;8.682;2022-07-29T07:58:21;22.00;76.90
45229;DHT22;30967;51.728;8.682;2022-07-29T08:00:47;22.00;76.50
45229;DHT22;30967;51.728;8.682;2022-07-29T08:03:12;22.00;76.50
45229;DHT22;30967;51.728;8.682;2022-07-29T08:05:40;22.10;76.30
45229;DHT22;30967;51.728;8.682;2022-07-29T08:08:06;22.10;76.30
45229;DHT22;30967;51.728;8.682;2022-07-29T08:10:32;22.10;76.20
45229;DHT22;30967;51.728;8.682;2022-07-29T08:13:16;22.10;76.20
45229;DHT22;30967;51.728;8.682;2022-07-29T08:15:42;22.10;76.10
45229;DHT22;30967;51.728;8.682;2022-07-29T08:18:10;22.20;76.10
45229;DHT22;30967;51.728;8.682;2022-07-29T08:20:36;22.20;75.90
45229;DHT22;30967;51.728;8.682;2022-07-29T08:23:04;22.20;75.80
45229;DHT22;30967;51.728;8.682;2022-07-29T08:25:32;22.20;75.60
45229;DHT22;30967;51.728;8.682;2022-07-29T08:27:58;22.20;75.60
45229;DHT22;30967;51.728;8.682;2022-07-29T08:30:24;22.30;75.80
45229;DHT22;30967;51.728;8.682;2022-07-29T08:32:50;22.30;75.80
45229;DHT22;30967;51.728;8.682;2022-07-29T08:35:19;22.30;75.90
45229;DHT22;30967;51.728;8.682;2022-07-29T08:37:44;22.30;75.80
45229;DHT22;30967;51.728;8.682;2022-07-29T08:40:11;22.30;75.90
45229;DHT22;30967;51.728;8.682;2022-07-29T08:42:37;22.30;76.10
45229;DHT22;30967;51.728;8.682;2022-07-29T08:45:04;22.40;76.20
45229;DHT22;30967;51.728;8.682;2022-07-29T08:47:30;22.40;76.20
45229;DHT22;30967;51.728;8.682;2022-07-29T08:49:56;22.40;76.30
45229;DHT22;30967;51.728;8.682;2022-07-29T08:52:24;22.40;76.40
45229;DHT22;30967;51.728;8.682;2022-07-29T08:54:51;22.40;76.50
45229;DHT22;30967;51.728;8.682;2022-07-29T08:57:18;22.40;76.50
45229;DHT22;30967;51.728;8.682;2022-07-29T08:59:46;22.40;76.60
45229;DHT22;30967;51.728;8.682;2022-07-29T09:02:22;22.50;76.80
45229;DHT22;30967;51.728;8.682;2022-07-29T09:04:49;22.50;76.80
45229;DHT22;30967;51.728;8.682;2022-07-29T09:07:16;22.50;76.90
45229;DHT22;30967;51.728;8.682;2022-07-29T09:09:43;22.50;77.10
45229;DHT22;30967;51.728;8.682;2022-07-29T09:12:10;22.50;77.20
45229;DHT22;30967;51.728;8.682;2022-07-29T09:14:38;22.50;77.30
45229;DHT22;30967;51.728;8.682;2022-07-29T09:17:03;22.50;76.50
45229;DHT22;30967;51.728;8.682;2022-07-29T09:19:31;22.60;76.40
45229;DHT22;30967;51.728;8.682;2022-07-29T09:21:59;22.60;76.70
45229;DHT22;30967;51.728;8.682;2022-07-29T09:27:09;22.70;77.00
45229;DHT22;30967;51.728;8.682;2022-07-29T09:29:35;22.80;77.30
45229;DHT22;30967;51.728;8.682;2022-07-29T09:32:07;22.80;77.80
45229;DHT22;30967;51.728;8.682;2022-07-29T09:34:34;22.90;77.40
45229;DHT22;30967;51.728;8.682;2022-07-29T09:37:00;22.90;76.90
45229;DHT22;30967;51.728;8.682;2022-07-29T09:39:39;23.00;76.60
45229;DHT22;30967;51.728;8.682;2022-07-29T09:42:14;23.00;76.40
45229;DHT22;30967;51.728;8.682;2022-07-29T09:44:52;23.10;76.60
45229;DHT22;30967;51.728;8.682;2022-07-29T09:47:18;23.00;76.60
45229;DHT22;30967;51.728;8.682;2022-07-29T09:49:57;23.10;76.60
45229;DHT22;30967;51.728;8.682;2022-07-29T09:52:26;23.10;76.50
45229;DHT22;30967;51.728;8.682;2022-07-29T09:54:52;23.20;76.70
45229;DHT22;30967;51.728;8.682;2022-07-29T09:57:27;23.20;76.50
45229;DHT22;30967;51.728;8.682;2022-07-29T10:00:03;23.30;76.30
45229;DHT22;30967;51.728;8.682;2022-07-29T10:02:34;23.40;76.40
45229;DHT22;30967;51.728;8.682;2022-07-29T10:05:02;23.40;76.60
45229;DHT22;30967;51.728;8.682;2022-07-29T10:07:52;23.40;76.70
45229;DHT22;30967;51.728;8.682;2022-07-29T10:13:03;23.50;76.20
45229;DHT22;30967;51.728;8.682;2022-07-29T10:15:31;23.70;76.30
45229;DHT22;30967;51.728;8.682;2022-07-29T10:17:59;23.60;75.70
45229;DHT22;30967;51.728;8.682;2022-07-29T10:20:26;23.70;76.00
45229;DHT22;30967;51.728;8.682;2022-07-29T10:22:52;23.70;76.10
45229;DHT22;30967;51.728;8.682;2022-07-29T10:25:19;23.80;76.20
45229;DHT22;30967;51.728;8.682;2022-07-29T10:27:46;23.90;76.20
45229;DHT22;30967;51.728;8.682;2022-07-29T10:30:14;24.00;75.80
45229;DHT22;30967;51.728;8.682;2022-07-29T10:33:00;24.00;75.50
45229;DHT22;30967;51.728;8.682;2022-07-29T10:39:00;24.20;77.20
45229;DHT22;30967;51.728;8.682;2022-07-29T10:44:33;24.40;76.10
45229;DHT22;30967;51.728;8.682;2022-07-29T10:46:59;24.40;75.50
45229;DHT22;30967;51.728;8.682;2022-07-29T10:49:26;24.60;75.30
45229;DHT22;30967;51.728;8.682;2022-07-29T10:54:43;24.70;74.30
45229;DHT22;30967;51.728;8.682;2022-07-29T10:57:28;24.80;73.30
45229;DHT22;30967;51.728;8.682;2022-07-29T11:05:03;25.10;72.80
45229;DHT22;30967;51.728;8.682;2022-07-29T11:07:29;25.20;72.90
45229;DHT22;30967;51.728;8.682;2022-07-29T11:15:11;25.40;72.50
45229;DHT22;30967;51.728;8.682;2022-07-29T11:20:36;25.50;73.00
45229;DHT22;30967;51.728;8.682;2022-07-29T11:23:30;25.60;73.00
45229;DHT22;30967;51.728;8.682;2022-07-29T11:26:15;25.60;73.10
45229;DHT22;30967;51.728;8.682;2022-07-29T11:31:19;25.80;72.70
45229;DHT22;30967;51.728;8.682;2022-07-29T11:33:45;25.80;72.80
45229;DHT22;30967;51.728;8.682;2022-07-29T11:36:15;25.80;71.90
45229;DHT22;30967;51.728;8.682;2022-07-29T11:38:41;25.80;72.60
45229;DHT22;30967;51.728;8.682;2022-07-29T11:41:20;25.90;74.90
45229;DHT22;30967;51.728;8.682;2022-07-29T11:43:51;26.00;75.90
45229;DHT22;30967;51.728;8.682;2022-07-29T11:49:10;26.20;74.00
45229;DHT22;30967;51.728;8.682;2022-07-29T11:51:39;26.30;73.70
45229;DHT22;30967;51.728;8.682;2022-07-29T11:54:05;26.30;73.30
45229;DHT22;30967;51.728;8.682;2022-07-29T11:56:32;26.40;73.70
45229;DHT22;30967;51.728;8.682;2022-07-29T11:59:05;26.50;73.70
45229;DHT22;30967;51.728;8.682;2022-07-29T12:01:31;26.50;72.70
45229;DHT22;30967;51.728;8.682;2022-07-29T12:04:07;26.50;73.60
45229;DHT22;30967;51.728;8.682;2022-07-29T12:06:36;26.60;73.80
45229;DHT22;30967;51.728;8.682;2022-07-29T12:09:08;26.70;73.00
45229;DHT22;30967;51.728;8.682;2022-07-29T12:11:35;26.70;73.30
45229;DHT22;30967;51.728;8.682;2022-07-29T12:14:00;26.80;72.70
45229;DHT22;30967;51.728;8.682;2022-07-29T12:16:36;26.90;73.10
45229;DHT22;30967;51.728;8.682;2022-07-29T12:19:03;27.00;73.30
45229;DHT22;30967;51.728;8.682;2022-07-29T12:21:53;27.10;71.90
45229;DHT22;30967;51.728;8.682;2022-07-29T12:24:20;27.10;71.30
45229;DHT22;30967;51.728;8.682;2022-07-29T12:26:57;27.20;70.40
45229;DHT22;30967;51.728;8.682;2022-07-29T12:29:23;27.30;70.60
45229;DHT22;30967;51.728;8.682;2022-07-29T12:31:53;27.40;70.80
45229;DHT22;30967;51.728;8.682;2022-07-29T12:34:22;27.40;70.30
45229;DHT22;30967;51.728;8.682;2022-07-29T12:36:48;27.50;70.40
45229;DHT22;30967;51.728;8.682;2022-07-29T12:39:16;27.60;70.20
45229;DHT22;30967;51.728;8.682;2022-07-29T12:41:43;27.60;70.60
45229;DHT22;30967;51.728;8.682;2022-07-29T12:44:09;27.70;71.30
45229;DHT22;30967;51.728;8.682;2022-07-29T12:46:35;27.80;71.00
45229;DHT22;30967;51.728;8.682;2022-07-29T12:49:00;27.80;70.50
45229;DHT22;30967;51.728;8.682;2022-07-29T12:51:39;27.90;70.70
45229;DHT22;30967;51.728;8.682;2022-07-29T12:56:32;28.10;69.90
45229;DHT22;30967;51.728;8.682;2022-07-29T12:58:58;28.20;69.70
45229;DHT22;30967;51.728;8.682;2022-07-29T13:01:23;28.30;70.00
45229;DHT22;30967;51.728;8.682;2022-07-29T13:03:50;28.40;70.00
45229;DHT22;30967;51.728;8.682;2022-07-29T13:06:42;28.50;69.70
45229;DHT22;30967;51.728;8.682;2022-07-29T13:09:16;28.60;69.50
45229;DHT22;30967;51.728;8.682;2022-07-29T13:11:52;28.60;69.10
45229;DHT22;30967;51.728;8.682;2022-07-29T13:14:35;28.70;69.40
45229;DHT22;30967;51.728;8.682;2022-07-29T13:19:42;28.90;69.80
45229;DHT22;30967;51.728;8.682;2022-07-29T13:22:17;28.90;69.30
45229;DHT22;30967;51.728;8.682;2022-07-29T13:24:56;29.10;69.10
45229;DHT22;30967;51.728;8.682;2022-07-29T13:27:27;29.20;69.50
45229;DHT22;30967;51.728;8.682;2022-07-29T13:29:54;29.30;69.00
45229;DHT22;30967;51.728;8.682;2022-07-29T13:32:22;29.40;69.20
45229;DHT22;30967;51.728;8.682;2022-07-29T13:34:48;29.60;68.60
45229;DHT22;30967;51.728;8.682;2022-07-29T13:37:15;29.60;69.50
45229;DHT22;30967;51.728;8.682;2022-07-29T13:39:44;29.60;68.60
45229;DHT22;30967;51.728;8.682;2022-07-29T13:42:10;29.80;69.80
45229;DHT22;30967;51.728;8.682;2022-07-29T13:44:39;29.80;69.00
45229;DHT22;30967;51.728;8.682;2022-07-29T13:47:05;30.00;68.00
45229;DHT22;30967;51.728;8.682;2022-07-29T13:49:30;30.10;67.50
45229;DHT22;30967;51.728;8.682;2022-07-29T13:51:56;30.20;68.80
45229;DHT22;30967;51.728;8.682;2022-07-29T13:54:22;30.40;68.80
45229;DHT22;30967;51.728;8.682;2022-07-29T13:56:49;30.60;69.20
45229;DHT22;30967;51.728;8.682;2022-07-29T13:59:14;30.70;68.20
45229;DHT22;30967;51.728;8.682;2022-07-29T14:01:40;30.90;68.80
45229;DHT22;30967;51.728;8.682;2022-07-29T14:04:08;31.10;66.20
45229;DHT22;30967;51.728;8.682;2022-07-29T14:06:33;31.10;65.60
45229;DHT22;30967;51.728;8.682;2022-07-29T14:08:59;31.20;67.30
45229;DHT22;30967;51.728;8.682;2022-07-29T14:11:25;31.40;68.20
45229;DHT22;30967;51.728;8.682;2022-07-29T14:13:50;31.60;68.40
45229;DHT22;30967;51.728;8.682;2022-07-29T14:16:16;31.80;67.20
45229;DHT22;30967;51.728;8.682;2022-07-29T14:18:42;31.90;67.10
45229;DHT22;30967;51.728;8.682;2022-07-29T14:21:08;32.10;67.80
45229;DHT22;30967;51.728;8.682;2022-07-29T14:23:33;32.30;67.00
45229;DHT22;30967;51.728;8.682;2022-07-29T14:25:59;32.40;66.40
45229;DHT22;30967;51.728;8.682;2022-07-29T14:28:25;32.60;66.30
45229;DHT22;30967;51.728;8.682;2022-07-29T14:30:50;32.70;65.50
45229;DHT22;30967;51.728;8.682;2022-07-29T14:33:16;32.80;65.60
45229;DHT22;30967;51.728;8.682;2022-07-29T14:35:42;32.90;65.00
45229;DHT22;30967;51.728;8.682;2022-07-29T14:38:07;33.00;64.70
45229;DHT22;30967;51.728;8.682;2022-07-29T14:40:33;33.10;65.20
45229;DHT22;30967;51.728;8.682;2022-07-29T14:42:59;33.20;64.40
45229;DHT22;30967;51.728;8.682;2022-07-29T14:45:25;33.30;64.00
45229;DHT22;30967;51.728;8.682;2022-07-29T14:47:50;33.40;63.30
45229;DHT22;30967;51.728;8.682;2022-07-29T14:50:16;33.40;62.30
45229;DHT22;30967;51.728;8.682;2022-07-29T14:52:42;33.50;61.90
45229;DHT22;30967;51.728;8.682;2022-07-29T14:55:08;33.40;61.50
45229;DHT22;30967;51.728;8.682;2022-07-29T14:57:34;33.50;61.30
45229;DHT22;30967;51.728;8.682;2022-07-29T14:59:59;33.50;61.60
45229;DHT22;30967;51.728;8.682;2022-07-29T15:02:25;33.60;61.10
45229;DHT22;30967;51.728;8.682;2022-07-29T15:04:51;33.60;61.00
45229;DHT22;30967;51.728;8.682;2022-07-29T15:07:16;33.60;61.10
45229;DHT22;30967;51.728;8.682;2022-07-29T15:09:42;33.60;61.10
45229;DHT22;30967;51.728;8.682;2022-07-29T15:12:10;33.50;60.90
45229;DHT22;30967;51.728;8.682;2022-07-29T15:14:36;33.50;61.10
45229;DHT22;30967;51.728;8.682;2022-07-29T15:17:01;33.40;60.80
45229;DHT22;30967;51.728;8.682;2022-07-29T15:19:27;33.40;61.40
45229;DHT22;30967;51.728;8.682;2022-07-29T15:21:53;33.40;61.80
45229;DHT22;30967;51.728;8.682;2022-07-29T15:24:19;33.30;62.20
45229;DHT22;30967;51.728;8.682;2022-07-29T15:26:45;33.20;61.80
45229;DHT22;30967;51.728;8.682;2022-07-29T15:29:11;33.20;61.80
45229;DHT22;30967;51.728;8.682;2022-07-29T15:31:36;33.10;61.80
45229;DHT22;30967;51.728;8.682;2022-07-29T15:34:02;33.10;61.70
45229;DHT22;30967;51.728;8.682;2022-07-29T15:36:28;33.00;62.00
45229;DHT22;30967;51.728;8.682;2022-07-29T15:38:54;32.90;62.00
45229;DHT22;30967;51.728;8.682;2022-07-29T15:41:20;32.80;61.80
45229;DHT22;30967;51.728;8.682;2022-07-29T15:43:46;32.80;62.00
45229;DHT22;30967;51.728;8.682;2022-07-29T15:46:17;32.70;62.30
45229;DHT22;30967;51.728;8.682;2022-07-29T15:49:02;32.60;62.10
45229;DHT22;30967;51.728;8.682;2022-07-29T15:51:28;32.50;62.00
45229;DHT22;30967;51.728;8.682;2022-07-29T15:53:53;32.40;62.20
45229;DHT22;30967;51.728;8.682;2022-07-29T15:56:19;32.30;61.60
45229;DHT22;30967;51.728;8.682;2022-07-29T15:58:45;32.20;61.40
45229;DHT22;30967;51.728;8.682;2022-07-29T16:01:11;32.00;60.90
45229;DHT22;30967;51.728;8.682;2022-07-29T16:03:36;32.00;61.40
45229;DHT22;30967;51.728;8.682;2022-07-29T16:06:03;31.80;61.80
45229;DHT22;30967;51.728;8.682;2022-07-29T16:08:28;31.80;62.30
45229;DHT22;30967;51.728;8.682;2022-07-29T16:10:54;31.70;62.30
45229;DHT22;30967;51.728;8.682;2022-07-29T16:13:20;31.60;62.20
45229;DHT22;30967;51.728;8.682;2022-07-29T16:15:46;31.50;62.60
45229;DHT22;30967;51.728;8.682;2022-07-29T16:18:11;31.40;62.10
45229;DHT22;30967;51.728;8.682;2022-07-29T16:20:39;31.40;62.20
45229;DHT22;30967;51.728;8.682;2022-07-29T16:23:05;31.30;62.80
45229;DHT22;30967;51.728;8.682;2022-07-29T16:25:32;31.20;62.90
45229;DHT22;30967;51.728;8.682;2022-07-29T16:27:57;31.10;62.90